createdAt,value
2018-06-09T00:00:57.807Z,101013.63
2018-06-09T00:03:26.799Z,101012.14
2018-06-09T00:05:55.718Z,101004.27
2018-06-09T00:08:24.599Z,101003.42
2018-06-09T00:10:53.461Z,101004.72
2018-06-09T00:13:22.345Z,101000.08
2018-06-09T00:15:51.240Z,100997.96
2018-06-09T00:18:20.147Z,100991.23
2018-06-09T00:20:49.058Z,100998.11
2018-06-09T00:23:18.008Z,101000.86
2018-06-09T00:25:46.937Z,100995.69
2018-06-09T00:28:15.864Z,100994.84
2018-06-09T00:30:44.801Z,100990.20
2018-06-09T00:33:13.713Z,100985.03
2018-06-09T00:35:42.663Z,100989.30
2018-06-09T00:38:11.582Z,100993.09
2018-06-09T00:40:40.468Z,100987.30
2018-06-09T00:43:09.403Z,100982.73
2018-06-09T00:45:38.264Z,100979.84
2018-06-09T00:48:07.138Z,100980.03
2018-06-09T00:50:36.075Z,100979.03
2018-06-09T00:53:04.990Z,100971.02
2018-06-09T00:55:33.959Z,100971.91
2018-06-09T00:58:02.858Z,100964.94
2018-06-09T01:00:31.679Z,100975.02
2018-06-09T01:03:00.597Z,100972.63
2018-06-09T01:05:29.498Z,100967.47
2018-06-09T01:07:58.426Z,100970.73
2018-06-09T01:10:27.382Z,100975.26
2018-06-09T01:12:56.179Z,100980.86
2018-06-09T01:15:25.135Z,100976.43
2018-06-09T01:17:54.093Z,100982.07
2018-06-09T01:20:23.845Z,100976.63
2018-06-09T01:22:52.745Z,100966.81
2018-06-09T01:25:21.666Z,100972.50
2018-06-09T01:27:50.576Z,100964.63
2018-06-09T01:30:19.448Z,100956.39
2018-06-09T01:32:48.420Z,100957.54
2018-06-09T01:35:17.277Z,100961.17
2018-06-09T01:37:46.160Z,100953.42
2018-06-09T01:40:15.062Z,100946.44
2018-06-09T01:42:43.967Z,100947.62
2018-06-09T01:45:12.873Z,100949.05
2018-06-09T01:47:41.754Z,100957.85
2018-06-09T01:50:10.634Z,100952.95
2018-06-09T01:52:39.543Z,100956.14
2018-06-09T01:55:08.426Z,100954.96
2018-06-09T01:57:37.397Z,100955.26
2018-06-09T02:00:06.271Z,100949.75
2018-06-09T02:02:35.223Z,100952.36
2018-06-09T02:05:04.155Z,100948.90
2018-06-09T02:07:33.086Z,100950.42
2018-06-09T02:10:01.979Z,100951.79
2018-06-09T02:12:30.849Z,100943.03
2018-06-09T02:14:59.740Z,100944.55
2018-06-09T02:17:28.628Z,100944.73
2018-06-09T02:19:57.560Z,100942.88
2018-06-09T02:22:26.435Z,100944.11
2018-06-09T02:24:55.251Z,100946.55
2018-06-09T02:27:24.154Z,100943.41
2018-06-09T02:29:53.073Z,100942.03
2018-06-09T02:32:21.907Z,100945.66
2018-06-09T02:34:50.808Z,100945.92
2018-06-09T02:37:19.769Z,100943.55
2018-06-09T02:39:48.650Z,100944.26
2018-06-09T02:42:17.566Z,100948.13
2018-06-09T02:44:46.489Z,100943.23
2018-06-09T02:47:15.400Z,100938.86
2018-06-09T02:49:44.416Z,100938.04
2018-06-09T02:52:13.341Z,100932.40
2018-06-09T02:54:50.041Z,100937.22
2018-06-09T02:57:20.597Z,100941.97
2018-06-09T02:59:49.517Z,100941.15
2018-06-09T03:02:18.533Z,100940.18
2018-06-09T03:04:47.450Z,100945.97
2018-06-09T03:07:16.447Z,100944.05
2018-06-09T03:09:45.402Z,100941.86
2018-06-09T03:12:14.378Z,100941.86
2018-06-09T03:14:43.327Z,100942.01
2018-06-09T03:17:12.289Z,100937.74
2018-06-09T03:19:41.294Z,100941.67
2018-06-09T03:22:10.327Z,100952.28
2018-06-09T03:24:39.400Z,100956.00
2018-06-09T03:27:08.321Z,100963.87
2018-06-09T03:29:37.207Z,100960.94
2018-06-09T03:32:06.148Z,100962.13
2018-06-09T03:34:34.974Z,100961.97
2018-06-09T03:37:03.817Z,100961.27
2018-06-09T03:39:32.728Z,100966.88
2018-06-09T03:42:01.635Z,100969.51
2018-06-09T03:44:30.606Z,100968.25
2018-06-09T03:46:59.556Z,100973.11
2018-06-09T03:49:28.490Z,100974.59
2018-06-09T03:51:57.462Z,100976.04
2018-06-09T03:54:26.363Z,100978.64
2018-06-09T03:56:55.223Z,100981.53
2018-06-09T03:59:24.123Z,100981.42
2018-06-09T04:01:53.063Z,100985.21
2018-06-09T04:04:21.951Z,100980.76
2018-06-09T04:06:50.850Z,100984.55
2018-06-09T04:09:19.832Z,100980.91
2018-06-09T04:11:48.781Z,100985.95
2018-06-09T04:14:17.624Z,100985.09
2018-06-09T04:16:50.293Z,100989.48
2018-06-09T04:19:19.145Z,100987.92
2018-06-09T04:21:48.015Z,100987.47
2018-06-09T04:24:16.904Z,100977.67
2018-06-09T04:26:45.792Z,100984.50
2018-06-09T04:29:14.668Z,100986.25
2018-06-09T04:31:43.578Z,100988.14
2018-06-09T04:34:12.473Z,100983.98
2018-06-09T04:36:41.485Z,100977.19
2018-06-09T04:39:11.751Z,100985.39
2018-06-09T04:41:40.594Z,100978.78
2018-06-09T04:44:09.470Z,100980.83
2018-06-09T04:46:38.341Z,100979.13
2018-06-09T04:49:07.207Z,100978.03
2018-06-09T04:51:36.234Z,100977.18
2018-06-09T04:54:05.365Z,100976.13
2018-06-09T04:56:34.297Z,100977.12
2018-06-09T04:59:03.153Z,100982.68
2018-06-09T05:01:32.048Z,100984.41
2018-06-09T05:04:01.016Z,100983.03
2018-06-09T05:06:29.924Z,100980.34
2018-06-09T05:08:58.894Z,100985.98
2018-06-09T05:11:27.840Z,100981.14
2018-06-09T05:13:56.745Z,100984.14
2018-06-09T05:16:25.584Z,100978.78
2018-06-09T05:18:54.517Z,100979.49
2018-06-09T05:21:23.413Z,100982.52
2018-06-09T05:23:52.258Z,100967.92
2018-06-09T05:26:21.177Z,100972.04
2018-06-09T05:28:50.107Z,100968.77
2018-06-09T05:31:19.024Z,100981.91
2018-06-09T05:33:47.887Z,100976.95
2018-06-09T05:36:16.811Z,100976.28
2018-06-09T05:38:45.699Z,100971.91
2018-06-09T05:41:14.564Z,100970.70
2018-06-09T05:43:43.407Z,100969.97
2018-06-09T05:46:12.281Z,100962.98
2018-06-09T05:48:41.172Z,100960.06
2018-06-09T05:51:10.215Z,100964.16
2018-06-09T05:53:39.148Z,100952.38
2018-06-09T05:56:08.071Z,100965.03
2018-06-09T05:58:36.970Z,100960.67
2018-06-09T06:01:05.933Z,100968.20
2018-06-09T06:03:34.805Z,100970.19
2018-06-09T06:06:03.700Z,100975.05
2018-06-09T06:08:32.612Z,100979.52
2018-06-09T06:11:01.479Z,100975.42
2018-06-09T06:13:30.338Z,100974.26
2018-06-09T06:15:59.185Z,100974.86
2018-06-09T06:18:28.051Z,100973.27
2018-06-09T06:20:56.932Z,100977.00
2018-06-09T06:23:25.797Z,100975.95
2018-06-09T06:25:54.685Z,100976.36
2018-06-09T06:28:23.631Z,100974.36
2018-06-09T06:30:52.399Z,100980.95
2018-06-09T06:33:21.293Z,100985.73
2018-06-09T06:35:50.200Z,100987.86
2018-06-09T06:38:19.063Z,100984.83
2018-06-09T06:40:47.982Z,100992.06
2018-06-09T06:43:16.887Z,100992.87
2018-06-09T06:45:45.812Z,100991.00
2018-06-09T06:48:14.710Z,100994.77
2018-06-09T06:50:43.614Z,100996.64
2018-06-09T06:53:12.485Z,101004.95
2018-06-09T06:55:41.354Z,101005.74
2018-06-09T06:58:10.256Z,100996.77
2018-06-09T07:00:39.095Z,100995.47
2018-06-09T07:03:07.986Z,100995.94
2018-06-09T07:05:36.871Z,100993.10
2018-06-09T07:08:05.768Z,100985.31
2018-06-09T07:10:34.641Z,100982.16
2018-06-09T07:13:03.550Z,100983.59
2018-06-09T07:15:32.449Z,100980.02
2018-06-09T07:18:01.310Z,100983.83
2018-06-09T07:20:30.259Z,100972.19
2018-06-09T07:22:59.192Z,100971.50
2018-06-09T07:25:28.098Z,100975.95
2018-06-09T07:27:56.999Z,100983.22
2018-06-09T07:30:25.831Z,100972.14
2018-06-09T07:32:54.696Z,100975.45
2018-06-09T07:35:23.542Z,100974.80
2018-06-09T07:37:52.424Z,100978.91
2018-06-09T07:40:21.348Z,100982.49
2018-06-09T07:42:50.246Z,100978.41
2018-06-09T07:45:19.137Z,100982.88
2018-06-09T07:47:48.054Z,100984.15
2018-06-09T07:50:16.882Z,100980.06
2018-06-09T07:52:45.792Z,100984.08
2018-06-09T07:55:14.681Z,100978.50
2018-06-09T07:57:43.535Z,100990.17
2018-06-09T08:00:12.463Z,100992.24
2018-06-09T08:02:41.331Z,100988.48
2018-06-09T08:05:10.218Z,100991.97
2018-06-09T08:07:39.060Z,100990.64
2018-06-09T08:10:07.929Z,100997.80
2018-06-09T08:12:36.789Z,100999.23
2018-06-09T08:15:05.637Z,100995.64
2018-06-09T08:17:34.494Z,100991.08
2018-06-09T08:20:03.391Z,100992.95
2018-06-09T08:22:32.281Z,100991.48
2018-06-09T08:25:01.310Z,100990.48
2018-06-09T08:27:30.126Z,100978.31
2018-06-09T08:29:58.949Z,100975.02
2018-06-09T08:32:27.843Z,100974.66
2018-06-09T08:34:56.751Z,100976.88
2018-06-09T08:37:25.615Z,100972.17
2018-06-09T08:39:54.586Z,100968.27
2018-06-09T08:42:23.478Z,100965.26
2018-06-09T08:44:52.357Z,100969.68
2018-06-09T08:47:21.199Z,100968.25
2018-06-09T08:49:50.066Z,100970.62
2018-06-09T08:52:18.990Z,100971.56
2018-06-09T08:54:47.873Z,100967.48
2018-06-09T08:57:16.758Z,100969.73
2018-06-09T08:59:45.640Z,100965.56
2018-06-09T09:02:14.571Z,100972.23
2018-06-09T09:04:43.488Z,100975.09
2018-06-09T09:07:12.479Z,100972.50
2018-06-09T09:09:41.409Z,100974.70
2018-06-09T09:12:10.259Z,100978.16
2018-06-09T09:14:39.151Z,100966.92
2018-06-09T09:17:08.010Z,100969.22
2018-06-09T09:19:36.858Z,100966.27
2018-06-09T09:22:06.079Z,100970.83
2018-06-09T09:24:34.994Z,100958.98
2018-06-09T09:27:03.878Z,100965.08
2018-06-09T09:29:32.776Z,100964.72
2018-06-09T09:32:01.752Z,100959.70
2018-06-09T09:34:30.596Z,100952.37
2018-06-09T09:36:59.466Z,100953.61
2018-06-09T09:39:28.296Z,100951.87
2018-06-09T09:41:57.182Z,100951.77
2018-06-09T09:44:26.055Z,100950.95
2018-06-09T09:46:54.950Z,100952.67
2018-06-09T09:49:23.910Z,100956.02
2018-06-09T09:51:52.744Z,100951.24
2018-06-09T09:54:21.540Z,100952.86
2018-06-09T09:56:50.490Z,100952.56
2018-06-09T09:59:19.390Z,100954.67
2018-06-09T10:01:48.211Z,100954.94
2018-06-09T10:04:17.114Z,100952.22
2018-06-09T10:06:45.986Z,100949.43
2018-06-09T10:09:14.955Z,100954.00
2018-06-09T10:11:43.778Z,100951.57
2018-06-09T10:14:14.815Z,100951.02
2018-06-09T10:16:43.682Z,100949.81
2018-06-09T10:19:12.515Z,100944.38
2018-06-09T10:21:41.435Z,100948.50
2018-06-09T10:24:10.375Z,100952.86
2018-06-09T10:26:39.904Z,100952.83
2018-06-09T10:29:08.821Z,100951.72
2018-06-09T10:31:37.746Z,100948.85
2018-06-09T10:34:06.632Z,100949.42
2018-06-09T10:36:35.538Z,100949.80
2018-06-09T10:39:07.639Z,100938.12
2018-06-09T10:41:36.924Z,100939.31
2018-06-09T10:44:09.259Z,100937.35
2018-06-09T10:46:38.703Z,100939.34
2018-06-09T10:49:07.807Z,100942.13
2018-06-09T10:51:36.810Z,100932.44
2018-06-09T10:54:05.847Z,100929.02
2018-06-09T10:56:34.930Z,100924.31
2018-06-09T10:59:04.024Z,100929.39
2018-06-09T11:01:33.152Z,100927.31
2018-06-09T11:04:04.914Z,100925.33
2018-06-09T11:06:34.488Z,100917.32
2018-06-09T11:09:04.214Z,100922.99
2018-06-09T11:11:33.350Z,100917.50
2018-06-09T11:14:04.130Z,100914.56
2018-06-09T11:16:45.811Z,100917.25
2018-06-09T11:19:14.731Z,100918.92
2018-06-09T11:21:43.607Z,100925.44
2018-06-09T11:24:12.548Z,100923.50
2018-06-09T11:26:41.487Z,100922.38
2018-06-09T11:29:10.373Z,100914.81
2018-06-09T11:31:39.313Z,100917.04
2018-06-09T11:34:08.240Z,100915.33
2018-06-09T11:36:37.042Z,100910.72
2018-06-09T11:39:08.278Z,100909.38
2018-06-09T11:41:37.439Z,100912.52
2018-06-09T11:44:06.367Z,100902.17
2018-06-09T11:46:35.363Z,100907.13
2018-06-09T11:49:04.313Z,100903.67
2018-06-09T11:51:33.208Z,100895.61
2018-06-09T11:54:02.040Z,100892.64
2018-06-09T11:56:30.979Z,100886.76
2018-06-09T11:58:59.820Z,100892.48
2018-06-09T12:01:28.766Z,100895.52
2018-06-09T12:03:57.717Z,100891.15
2018-06-09T12:06:26.598Z,100887.14
2018-06-09T12:08:55.560Z,100882.80
2018-06-09T12:11:24.480Z,100883.00
2018-06-09T12:13:53.368Z,100883.09
2018-06-09T12:16:22.214Z,100872.44
2018-06-09T12:18:51.132Z,100868.50
2018-06-09T12:21:20.028Z,100872.39
2018-06-09T12:23:48.934Z,100866.19
2018-06-09T12:26:17.914Z,100871.20
2018-06-09T12:28:46.763Z,100869.48
2018-06-09T12:31:15.622Z,100862.21
2018-06-09T12:33:44.607Z,100856.58
2018-06-09T12:36:13.574Z,100863.30
2018-06-09T12:38:42.417Z,100862.16
2018-06-09T12:41:13.156Z,100862.16
2018-06-09T12:43:42.096Z,100865.36
2018-06-09T12:46:10.993Z,100859.52
2018-06-09T12:48:40.094Z,100854.71
2018-06-09T12:51:08.990Z,100857.16
2018-06-09T12:53:37.910Z,100854.95
2018-06-09T12:56:06.813Z,100854.34
2018-06-09T12:58:35.675Z,100850.91
2018-06-09T13:01:04.681Z,100852.20
2018-06-09T13:03:33.644Z,100853.69
2018-06-09T13:06:02.607Z,100854.34
2018-06-09T13:08:31.455Z,100849.02
2018-06-09T13:11:00.519Z,100844.52
2018-06-09T13:13:29.437Z,100847.26
2018-06-09T13:15:58.414Z,100850.55
2018-06-09T13:18:27.311Z,100847.69
2018-06-09T13:20:56.245Z,100849.48
2018-06-09T13:23:25.087Z,100845.27
2018-06-09T13:25:54.347Z,100842.27
2018-06-09T13:28:23.375Z,100846.67
2018-06-09T13:30:52.259Z,100833.56
2018-06-09T13:33:21.316Z,100841.92
2018-06-09T13:35:50.294Z,100841.03
2018-06-09T13:38:19.161Z,100836.02
2018-06-09T13:40:48.137Z,100827.08
2018-06-09T13:43:17.253Z,100825.63
2018-06-09T13:45:46.378Z,100824.53
2018-06-09T13:48:15.146Z,100818.86
2018-06-09T13:50:44.050Z,100819.44
2018-06-09T13:53:12.974Z,100819.75
2018-06-09T13:55:41.963Z,100813.59
2018-06-09T13:58:10.838Z,100812.42
2018-06-09T14:00:39.813Z,100816.13
2018-06-09T14:03:08.723Z,100816.30
2018-06-09T14:05:37.636Z,100814.09
2018-06-09T14:08:06.620Z,100809.63
2018-06-09T14:10:35.482Z,100795.66
2018-06-09T14:13:04.455Z,100797.69
2018-06-09T14:15:33.461Z,100802.25
2018-06-09T14:18:02.368Z,100808.92
2018-06-09T14:20:31.273Z,100807.35
2018-06-09T14:23:00.083Z,100805.66
2018-06-09T14:25:29.028Z,100805.09
2018-06-09T14:27:57.884Z,100797.81
2018-06-09T14:30:26.864Z,100793.37
2018-06-09T14:32:55.751Z,100793.42
2018-06-09T14:35:24.689Z,100797.28
2018-06-09T14:37:53.509Z,100789.96
2018-06-09T14:40:22.412Z,100794.69
2018-06-09T14:42:51.273Z,100793.53
2018-06-09T14:45:20.269Z,100788.49
2018-06-09T14:47:49.324Z,100793.05
2018-06-09T14:50:18.180Z,100785.55
2018-06-09T14:52:47.143Z,100785.26
2018-06-09T14:55:15.985Z,100784.08
2018-06-09T14:57:44.992Z,100777.83
2018-06-09T15:00:13.822Z,100780.11
2018-06-09T15:02:42.965Z,100783.47
2018-06-09T15:05:12.136Z,100786.52
2018-06-09T15:07:41.135Z,100776.48
2018-06-09T15:10:10.224Z,100774.31
2018-06-09T15:12:39.094Z,100777.03
2018-06-09T15:15:08.012Z,100779.77
2018-06-09T15:17:36.958Z,100769.77
2018-06-09T15:20:06.074Z,100769.57
2018-06-09T15:22:35.029Z,100772.30
2018-06-09T15:25:03.943Z,100773.20
2018-06-09T15:27:33.032Z,100773.35
2018-06-09T15:30:01.988Z,100776.33
2018-06-09T15:32:30.900Z,100770.38
2018-06-09T15:34:59.848Z,100780.77
2018-06-09T15:37:28.773Z,100779.98
2018-06-09T15:39:57.688Z,100786.27
2018-06-09T15:42:26.506Z,100785.41
2018-06-09T15:44:55.479Z,100778.88
2018-06-09T15:47:24.349Z,100777.95
2018-06-09T15:49:53.275Z,100782.35
2018-06-09T15:52:22.239Z,100785.00
2018-06-09T15:54:54.429Z,100778.05
2018-06-09T15:57:23.422Z,100784.44
2018-06-09T15:59:52.534Z,100787.13
2018-06-09T16:02:21.394Z,100784.25
2018-06-09T16:04:50.298Z,100776.75
2018-06-09T16:07:19.268Z,100778.12
2018-06-09T16:09:48.108Z,100777.78
2018-06-09T16:12:17.038Z,100776.05
2018-06-09T16:14:45.997Z,100781.41
2018-06-09T16:17:14.919Z,100780.02
2018-06-09T16:19:43.862Z,100788.03
2018-06-09T16:22:12.783Z,100790.20
2018-06-09T16:24:41.697Z,100783.49
2018-06-09T16:27:13.879Z,100785.67
2018-06-09T16:29:42.839Z,100780.59
2018-06-09T16:32:11.699Z,100775.96
2018-06-09T16:34:40.662Z,100777.91
2018-06-09T16:37:09.657Z,100780.05
2018-06-09T16:39:38.637Z,100789.41
2018-06-09T16:42:07.544Z,100786.41
2018-06-09T16:44:36.553Z,100788.35
2018-06-09T16:47:05.464Z,100779.70
2018-06-09T16:49:34.431Z,100782.95
2018-06-09T16:52:03.315Z,100782.64
2018-06-09T16:54:32.307Z,100787.88
2018-06-09T16:57:01.074Z,100789.81
2018-06-09T16:59:30.095Z,100791.41
2018-06-09T17:01:59.100Z,100778.88
2018-06-09T17:04:27.983Z,100784.78
2018-06-09T17:06:57.037Z,100783.48
2018-06-09T17:09:26.018Z,100783.05
2018-06-09T17:11:54.967Z,100790.16
2018-06-09T17:14:23.905Z,100789.16
2018-06-09T17:16:52.921Z,100790.66
2018-06-09T17:19:21.963Z,100794.01
2018-06-09T17:21:50.857Z,100792.50
2018-06-09T17:24:19.740Z,100792.73
2018-06-09T17:26:48.630Z,100794.62
2018-06-09T17:29:17.568Z,100797.30
2018-06-09T17:31:46.478Z,100800.78
2018-06-09T17:34:15.401Z,100792.86
2018-06-09T17:36:44.266Z,100789.95
2018-06-09T17:39:13.158Z,100784.02
2018-06-09T17:41:42.113Z,100789.56
2018-06-09T17:44:11.048Z,100784.30
2018-06-09T17:46:39.938Z,100782.48
2018-06-09T17:49:08.898Z,100792.44
2018-06-09T17:51:37.842Z,100794.20
2018-06-09T17:54:06.715Z,100795.30
2018-06-09T17:56:35.625Z,100790.45
2018-06-09T17:59:06.072Z,100797.80
2018-06-09T18:01:37.997Z,100792.13
2018-06-09T18:04:06.823Z,100796.73
2018-06-09T18:06:35.759Z,100796.39
2018-06-09T18:09:07.309Z,100804.05
2018-06-09T18:11:36.537Z,100809.15
2018-06-09T18:14:05.487Z,100798.72
2018-06-09T18:16:34.383Z,100802.66
2018-06-09T18:19:05.927Z,100793.67
2018-06-09T18:21:34.820Z,100796.59
2018-06-09T18:24:03.703Z,100799.09
2018-06-09T18:26:32.761Z,100796.08
2018-06-09T18:29:01.636Z,100802.75
2018-06-09T18:31:30.700Z,100806.04
2018-06-09T18:33:59.616Z,100805.59
2018-06-09T18:36:28.520Z,100810.27
2018-06-09T18:38:57.324Z,100811.21
2018-06-09T18:41:26.239Z,100810.87
2018-06-09T18:43:55.152Z,100805.86
2018-06-09T18:46:24.061Z,100814.77
2018-06-09T18:48:52.917Z,100820.90
2018-06-09T18:51:21.827Z,100819.91
2018-06-09T18:53:50.742Z,100829.03
2018-06-09T18:56:19.631Z,100824.49
2018-06-09T18:58:48.550Z,100824.30
2018-06-09T19:01:17.515Z,100827.81
2018-06-09T19:03:46.437Z,100825.45
2018-06-09T19:06:15.336Z,100829.72
2018-06-09T19:08:44.239Z,100827.36
2018-06-09T19:11:13.220Z,100824.35
2018-06-09T19:13:42.046Z,100821.68
2018-06-09T19:16:11.069Z,100833.09
2018-06-09T19:18:39.926Z,100834.81
2018-06-09T19:21:08.819Z,100835.33
2018-06-09T19:23:37.849Z,100842.17
2018-06-09T19:26:06.664Z,100837.17
2018-06-09T19:28:35.519Z,100844.55
2018-06-09T19:31:04.380Z,100848.08
2018-06-09T19:33:33.297Z,100846.02
2018-06-09T19:36:02.149Z,100844.23
2018-06-09T19:38:31.015Z,100851.02
2018-06-09T19:40:59.899Z,100854.69
2018-06-09T19:43:28.929Z,100853.38
2018-06-09T19:45:57.818Z,100857.61
2018-06-09T19:48:26.720Z,100860.11
2018-06-09T19:50:55.622Z,100857.28
2018-06-09T19:53:24.526Z,100855.82
2018-06-09T19:55:53.425Z,100854.09
2018-06-09T19:58:22.279Z,100865.61
2018-06-09T20:00:51.133Z,100864.52
2018-06-09T20:03:20.192Z,100872.41
2018-06-09T20:05:49.005Z,100867.63
2018-06-09T20:08:18.017Z,100871.11
2018-06-09T20:10:46.831Z,100870.84
2018-06-09T20:13:15.687Z,100875.80
2018-06-09T20:15:44.520Z,100875.94
2018-06-09T20:18:13.387Z,100883.64
2018-06-09T20:20:42.211Z,100891.09
2018-06-09T20:23:11.094Z,100887.73
2018-06-09T20:25:39.924Z,100888.27
2018-06-09T20:28:08.758Z,100888.52
2018-06-09T20:30:37.593Z,100886.41
2018-06-09T20:33:06.556Z,100893.52
2018-06-09T20:35:35.405Z,100886.02
2018-06-09T20:38:04.243Z,100887.11
2018-06-09T20:40:33.073Z,100889.88
2018-06-09T20:43:01.897Z,100886.41
2018-06-09T20:45:30.746Z,100892.77
2018-06-09T20:47:59.614Z,100901.05
2018-06-09T20:50:28.474Z,100899.91
2018-06-09T20:52:57.305Z,100904.40
2018-06-09T20:55:26.165Z,100900.14
2018-06-09T20:57:54.976Z,100903.86
2018-06-09T21:00:23.813Z,100904.20
2018-06-09T21:02:52.636Z,100904.83
2018-06-09T21:05:21.469Z,100903.66
2018-06-09T21:07:50.288Z,100899.11
2018-06-09T21:10:19.130Z,100897.72
2018-06-09T21:12:48.021Z,100895.39
2018-06-09T21:15:16.868Z,100899.87
2018-06-09T21:17:45.727Z,100905.17
2018-06-09T21:20:14.590Z,100904.84
2018-06-09T21:22:43.446Z,100898.49
2018-06-09T21:25:12.273Z,100903.78
2018-06-09T21:27:59.046Z,100897.30
2018-06-09T21:30:43.591Z,100894.92
2018-06-09T21:34:06.035Z,100893.55
2018-06-09T21:36:52.620Z,100897.89
2018-06-09T21:39:38.984Z,100899.67
2018-06-09T21:42:26.056Z,100894.45
2018-06-09T21:45:11.660Z,100890.84
2018-06-09T21:47:40.490Z,100895.63
2018-06-09T21:50:09.348Z,100900.04
2018-06-09T21:52:38.207Z,100899.10
2018-06-09T21:55:07.066Z,100896.42
2018-06-09T21:57:35.897Z,100906.28
2018-06-09T22:00:07.161Z,100908.18
2018-06-09T22:02:36.021Z,100902.25
2018-06-09T22:05:04.870Z,100898.73
2018-06-09T22:07:33.748Z,100896.16
2018-06-09T22:10:02.558Z,100890.73
2018-06-09T22:12:31.421Z,100890.60
2018-06-09T22:15:00.240Z,100890.36
2018-06-09T22:17:29.088Z,100889.29
2018-06-09T22:19:57.993Z,100887.01
2018-06-09T22:22:26.796Z,100881.16
2018-06-09T22:24:55.652Z,100876.88
2018-06-09T22:27:24.518Z,100874.13
2018-06-09T22:29:53.346Z,100870.69
2018-06-09T22:32:22.200Z,100869.80
2018-06-09T22:34:51.026Z,100874.84
2018-06-09T22:37:19.988Z,100877.70
2018-06-09T22:39:48.793Z,100877.25
2018-06-09T22:42:17.666Z,100871.74
2018-06-09T22:44:46.515Z,100873.84
2018-06-09T22:47:15.357Z,100869.36
2018-06-09T22:49:44.207Z,100871.23
2018-06-09T22:52:13.055Z,100872.28
2018-06-09T22:54:41.944Z,100868.68
2018-06-09T22:57:10.820Z,100867.83
2018-06-09T22:59:39.694Z,100875.40
2018-06-09T23:02:08.528Z,100882.73
2018-06-09T23:04:37.398Z,100886.56
2018-06-09T23:07:07.342Z,100887.61
2018-06-09T23:09:36.206Z,100885.39
2018-06-09T23:12:05.048Z,100888.63
2018-06-09T23:14:33.882Z,100887.52
2018-06-09T23:17:02.756Z,100879.16
2018-06-09T23:19:31.569Z,100877.13
2018-06-09T23:22:00.436Z,100881.18
2018-06-09T23:24:29.264Z,100879.24
2018-06-09T23:26:58.128Z,100883.42
2018-06-09T23:29:27.005Z,100885.14
2018-06-09T23:31:55.837Z,100879.22
2018-06-09T23:34:24.700Z,100884.77
2018-06-09T23:36:53.562Z,100892.02
2018-06-09T23:39:22.401Z,100895.58
2018-06-09T23:41:51.262Z,100892.83
2018-06-09T23:44:20.110Z,100888.52
2018-06-09T23:46:48.943Z,100888.84
2018-06-09T23:49:17.798Z,100894.39
2018-06-09T23:51:46.621Z,100891.21
2018-06-09T23:54:15.474Z,100887.94
2018-06-09T23:56:44.335Z,100891.59
2018-06-09T23:59:13.156Z,100883.59
